Flight Track Log - Related Links

Times and Time Zones

All times are in EST time to prevent confusion due to time zone crossing. See the UPS110 flight status page for this flight to view local times or setup timezone preferences in your user account.

Time Position Orientation Groundspeed Altitude Reporting Facility
EST Latitude Longitude Course Direction KTS MPH feet Rate Location/Type
Sun 10:54:00 AM 61.2812 -151.8887 272° West 440 506 25,300  Level FlightAware ADS-B (PAEN / ENA)
Sun 10:54:30 AM 61.2831 -151.9994 272° West 444 511 26,400 2,100 Climbing FlightAware ADS-B (PAEN / ENA)
Sun 10:55:00 AM 61.2844 -152.1444 271° West 448 516 27,400 2,432 Climbing FlightAware ADS-B (PAEN / ENA)
Sun 10:55:44 AM 61.2850 -152.3316 270° West 440 506 29,400 2,560 Climbing FlightAware ADS-B
Sun 10:56:15 AM 61.2854 -152.4621 270° West 437 503 30,600 2,087 Climbing FlightAware ADS-B (PAEN / ENA)
Sun 10:56:53 AM 61.2857 -152.6181 270° West 434 499 31,800 1,760 Climbing FlightAware ADS-B
Sun 10:57:30 AM 61.2860 -152.7729 270° West 434 499 32,800 1,500 Climbing FlightAware ADS-B (PAEN / ENA)
Sun 10:58:01 AM 61.2861 -152.9015 270° West 438 504 33,500 1,143 Climbing FlightAware ADS-B (PAEN / ENA)
Sun 10:58:33 AM 61.2860 -153.0327 270° West 444 511 34,000 476 Climbing FlightAware ADS-B
Sun 10:59:04 AM 61.2857 -153.1701 270° West 446 513 34,000  Level FlightAware ADS-B
Sun 10:59:44 AM 61.2854 -153.3380 270° West 446 513 34,000  Level FlightAware ADS-B
Sun 11:00:31 AM 61.2846 -153.5396 270° West 444 511 34,000  Level FlightAware ADS-B (PAEN / ENA)
Sun 11:01:01 AM 61.2838 -153.6697 269° West 443 510 34,000  Level FlightAware ADS-B (PAEN / ENA)
Sun 11:01:46 AM 61.2825 -153.8581 269° West 441 507 34,000  Level FlightAware ADS-B (PAEN / ENA)
Sun 11:02:16 AM 61.2816 -153.9857 269° West 441 507 34,000  Level FlightAware ADS-B (PAEN / ENA)
Sun 11:02:54 AM 61.2802 -154.1463 269° West 440 506 34,000  Level FlightAware ADS-B
Sun 11:03:34 AM 61.2786 -154.3065 269° West 439 505 34,000  Level FlightAware ADS-B
Sun 11:04:04 AM 61.2771 -154.4335 269° West 439 505 34,000  Level FlightAware ADS-B
Sun 11:04:44 AM 61.2759 -154.5342 269° West 439 505 34,000  Level FlightAware ADS-B
Sun 11:05:14 AM 61.2741 -154.6768 269° West 440 506 34,000  Level FlightAware ADS-B
Sun 11:05:52 AM 61.2707 -154.8905 268° West 441 507 34,000  Level FlightAware ADS-B (PAEN / ENA)
Sun 11:07:08 AM 61.2500 -155.2000 268° West 440 506 34,000  Level Anchorage Center
Sun 11:08:08 AM 61.2500 -155.4500 270° West 440 506 34,000  Level Anchorage Center
Sun 11:09:09 AM 61.2500 -155.6833 270° West 430 495 34,000  Level Anchorage Center
Sun 11:10:09 AM 61.2500 -155.9500 270° West 450 518 34,000  Level Anchorage Center
Sun 11:11:09 AM 61.2500 -156.2000 270° West 450 518 34,000  Level Anchorage Center
Sun 11:12:10 AM 61.2500 -156.4667 270° West 440 506 34,000  Level Anchorage Center
Sun 11:13:10 AM 61.2500 -156.7333 270° West 450 518 34,000  Level Anchorage Center
Sun 11:14:10 AM 61.2500 -156.9833 270° West 450 518 34,000  Level Anchorage Center
Sun 11:15:11 AM 61.2500 -157.2500 270° West 450 518 34,000  Level Anchorage Center
Sun 11:16:11 AM 61.2500 -157.5167 270° West 450 518 34,000  Level Anchorage Center
Sun 11:17:11 AM 61.2500 -157.7833 270° West 460 529 34,000  Level Anchorage Center
Sun 11:18:12 AM 61.2333 -158.0333 262° West 450 518 34,000  Level Anchorage Center
Sun 11:19:12 AM 61.2333 -158.3000 270° West 450 518 34,000  Level Anchorage Center
Sun 11:20:12 AM 61.2333 -158.5667 270° West 460 529 34,000  Level Anchorage Center
Sun 11:21:13 AM 61.2333 -158.8333 270° West 450 518 34,000  Level Anchorage Center
Sun 11:22:13 AM 61.2333 -159.1000 270° West 460 529 34,000  Level Anchorage Center
Sun 11:23:13 AM 61.2333 -159.3667 270° West 450 518 34,000  Level Anchorage Center
Sun 11:24:14 AM 61.2167 -159.6333 263° West 450 518 34,000  Level Anchorage Center
Sun 11:25:14 AM 61.2167 -159.9000 270° West 450 518 34,000  Level Anchorage Center
Sun 11:26:15 AM 61.2167 -160.1500 270° West 450 518 34,000  Level Anchorage Center
Sun 11:27:15 AM 61.2000 -160.4167 263° West 440 506 34,000  Level Anchorage Center
Sun 11:28:15 AM 61.1833 -160.7167 264° West 450 518 34,000  Level Anchorage Center
Sun 11:29:16 AM 61.1833 -160.9667 270° West 450 518 34,000  Level Anchorage Center
Sun 11:30:16 AM 61.1833 -161.2333 270° West 450 518 34,000  Level Anchorage Center
Sun 11:31:16 AM 61.1667 -161.4833 262° West 450 518 34,000  Level Anchorage Center
Sun 11:32:17 AM 61.1500 -161.7500 263° West 450 518 34,000  Level Anchorage Center
Sun 11:33:17 AM 61.1500 -162.0167 270° West 440 506 34,000  Level Anchorage Center
Sun 11:34:17 AM 61.1333 -162.2667 262° West 440 506 34,000  Level Anchorage Center
Sun 11:35:18 AM 61.1333 -162.5333 270° West 450 518 34,000  Level Anchorage Center
Sun 11:36:18 AM 61.1167 -162.7833 262° West 450 518 34,000  Level Anchorage Center
Sun 11:37:18 AM 61.1000 -163.0500 263° West 440 506 34,000  Level Anchorage Center
Sun 11:38:19 AM 61.0667 -163.3000 255° West 450 518 34,000  Level Anchorage Center
Sun 11:39:19 AM 61.0333 -163.5500 255° West 450 518 34,000  Level Anchorage Center
Sun 11:40:19 AM 61.0000 -163.8000 255° West 450 518 34,000  Level Anchorage Center
Sun 11:41:20 AM 60.9500 -164.0667 249° West 460 529 34,000  Level Anchorage Center
Sun 11:42:20 AM 60.9167 -164.3167 255° West 450 518 34,000  Level Anchorage Center
Sun 11:43:21 AM 60.8833 -164.5667 255° West 450 518 34,000  Level Anchorage Center
Sun 11:44:21 AM 60.8500 -164.8167 255° West 460 529 34,000  Level Anchorage Center
Sun 11:45:21 AM 60.8000 -165.0667 248° West 460 529 34,000  Level Anchorage Center
Sun 11:46:22 AM 60.7667 -165.3167 255° West 460 529 34,000  Level Anchorage Center
Sun 11:47:22 AM 60.7167 -165.5667 248° West 460 529 34,000  Level Anchorage Center
Sun 11:48:22 AM 60.6833 -165.8333 256° West 460 529 34,000  Level Anchorage Center
Sun 11:49:22 AM 60.6333 -166.0833 248° West 460 529 34,000  Level Anchorage Center
Sun 11:50:22 AM 60.6000 -166.3333 255° West 460 529 34,000  Level Anchorage Center
Sun 11:51:22 AM 60.5500 -166.5833 248° West 470 541 34,000  Level Anchorage Center
Sun 11:52:22 AM 60.5167 -166.8333 255° West 470 541 34,000  Level Anchorage Center
Sun 11:53:22 AM 60.4667 -167.0833 248° West 470 541 34,000  Level Anchorage Center
Sun 11:54:22 AM 60.4167 -167.3333 248° West 470 541 34,000  Level Anchorage Center
Sun 11:55:22 AM 60.3833 -167.5833 255° West 470 541 34,000  Level Anchorage Center
Sun 11:56:22 AM 60.3333 -167.8333 248° West 470 541 34,000  Level Anchorage Center
Sun 11:57:22 AM 60.2833 -168.0833 248° West 470 541 34,000  Level Anchorage Center
Sun 11:58:22 AM 60.2500 -168.3333 255° West 470 541 34,000  Level Anchorage Center
Sun 11:59:23 AM 60.2000 -168.5833 248° West 460 529 34,000  Level Anchorage Center
Sun 12:00:22 PM 60.1500 -168.8167 247° West 460 529 34,000  Level Anchorage Center
Sun 12:01:23 PM 60.1000 -169.0667 248° West 460 529 34,000  Level Anchorage Center
Sun 12:02:23 PM 60.0667 -169.3000 254° West 460 529 34,000  Level Anchorage Center
Sun 12:03:23 PM 60.0167 -169.5500 248° West 460 529 34,000  Level Anchorage Center
Sun 12:04:23 PM 59.9667 -169.7833 247° West 460 529 34,000  Level Anchorage Center
Sun 12:05:23 PM 59.9167 -170.0333 248° West 470 541 34,000  Level Anchorage Center
Sun 12:06:23 PM 59.8667 -170.2667 247° West 460 529 34,000  Level Anchorage Center
Sun 12:07:23 PM 59.8333 -170.4833 253° West 460 529 34,000  Level Anchorage Center
Sun 12:08:23 PM 59.7667 -170.7500 244° Southwest 460 529 34,000  Level Anchorage Center
Sun 12:09:24 PM 59.7333 -170.9667 253° West 470 541 34,000  Level Anchorage Center
Sun 12:10:23 PM 59.6833 -171.2000 247° West 450 518 34,000  Level Anchorage Center
Sun 12:11:23 PM 59.6333 -171.4333 247° West 470 541 34,000  Level Anchorage Center
Sun 12:12:23 PM 59.5833 -171.6667 247° West 470 541 34,000  Level Anchorage Center
Sun 12:13:23 PM 59.5333 -171.9000 247° West 460 529 34,000  Level Anchorage Center
Sun 12:14:23 PM 59.4833 -172.1333 247° West 460 529 34,000  Level Anchorage Center
Sun 12:15:24 PM 59.4333 -172.3667 247° West 460 529 34,000  Level Anchorage Center
Sun 12:16:24 PM 59.3833 -172.6000 247° West 460 529 34,000  Level Anchorage Center
Sun 12:17:23 PM 59.3333 -172.8333 247° West 460 529 34,000  Level Anchorage Center
Sun 12:18:24 PM 59.2833 -173.0833 249° West 460 529 34,000  Level Anchorage Center
Sun 12:19:24 PM 59.2333 -173.3000 246° West 460 529 34,000  Level Anchorage Center
Sun 12:20:24 PM 59.1833 -173.5333 247° West 460 529 34,000  Level Anchorage Center
Sun 12:21:24 PM 59.1333 -173.7667 247° West 470 541 34,000  Level Anchorage Center
Sun 12:22:24 PM 59.0833 -174.0000 247° West 450 518 34,000  Level Anchorage Center
Sun 12:23:24 PM 59.0333 -174.2333 247° West 460 529 34,000  Level Anchorage Center
Sun 12:24:24 PM 58.9833 -174.4667 248° West 470 541 34,000  Level Anchorage Center
Sun 12:25:24 PM 58.9333 -174.7000 248° West 460 529 34,000  Level Anchorage Center
Sun 12:26:24 PM 58.8833 -174.9167 246° West 470 541 34,000  Level Anchorage Center
Sun 12:27:24 PM 58.8333 -175.1500 248° West 460 529 34,000  Level Anchorage Center
Sun 12:28:24 PM 58.7833 -175.3833 248° West 460 529 34,000  Level Anchorage Center
Sun 12:29:25 PM 58.7333 -175.6000 246° West 460 529 34,000  Level Anchorage Center
Sun 12:30:25 PM 58.6667 -175.8333 241° Southwest 480 552 34,000  Level Anchorage Center
Sun 12:31:29 PM 58.6000 -176.1000 244° Southwest 460 529 34,000  Level Anchorage Center
Sun 12:32:30 PM 58.5500 -176.3333 248° West 450 518 34,000  Level Anchorage Center
Sun 12:33:30 PM 58.5000 -176.5500 246° West 460 529 34,000  Level Anchorage Center
Sun 12:34:30 PM 58.4500 -176.7667 246° West 460 529 34,000  Level Anchorage Center
Sun 12:36:06 PM 58.3833 -177.1000 245° Southwest 467 537 34,000  Level Anchorage Center
Sun 12:38:31 PM 58.2500 -177.6333 244° Southwest 464 534 34,000  Level Anchorage Center
Sun 12:48:09 PM 57.7000 -179.7167 242° Southwest 458 527 34,000  Level Anchorage Center
Sun 12:57:37 PM 57.1333 178.3167 241° Southwest 463 533 34,000  Level Anchorage Center
Sun 01:02:20 PM 56.8333 177.3500 240° Southwest 459 528 34,000  Level Anchorage Center
Sun 01:07:21 PM 56.5167 176.3833 239° Southwest 457 526 34,000  Level Anchorage Center
Sun 01:17:31 PM 55.8833 174.5167 238° Southwest 454 522 34,000  Level Anchorage Center
Sun 01:18:17 PM 55.7667 174.2167 237° Southwest 470 541 34,000  Level Anchorage Center
Sun 01:19:00 PM 55.7102 174.0432 237° Southwest 457 526 34,000  Level FlightAware Transoceanic
Sun 01:19:17 PM 55.7000 174.0500 235° Southwest 450 518 34,000  Level Anchorage Center
Sun 01:20:00 PM 55.6410 173.8526 237° Southwest 457 526 34,000  Level FlightAware Transoceanic
Sun 01:20:18 PM 55.6333 173.8333 241° Southwest 460 529 34,000  Level Anchorage Center
Sun 01:21:00 PM 55.5715 173.6626 237° Southwest 457 526 34,000  Level FlightAware Transoceanic
Sun 01:21:17 PM 55.5667 173.6667 235° Southwest 460 529 34,000  Level Anchorage Center
Sun 01:22:00 PM 55.5018 173.4734 237° Southwest 457 526 34,000  Level FlightAware Transoceanic
Sun 01:22:18 PM 55.5000 173.4667 240° Southwest 460 529 34,000  Level Anchorage Center
Sun 01:23:00 PM 55.4514 173.3323 237° Southwest 454 522 34,000  Level FlightAware Transoceanic
Sun 01:23:18 PM 55.4333 173.3167 232° Southwest 450 518 34,000  Level Anchorage Center
Sun 01:24:18 PM 55.3500 173.1000 236° Southwest 460 529 34,000  Level Anchorage Center
Sun 01:25:18 PM 55.2833 172.9000 240° Southwest 450 518 34,000  Level Anchorage Center
Sun 01:26:18 PM 55.2167 172.7333 235° Southwest 460 529 34,000  Level Anchorage Center
Sun 01:27:18 PM 55.1333 172.5333 234° Southwest 480 552 34,000  Level Anchorage Center
Sun 01:28:18 PM 55.0667 172.3667 235° Southwest 460 529 34,000  Level Anchorage Center
Sun 01:29:18 PM 55.0000 172.1667 240° Southwest 460 529 34,000  Level Anchorage Center
Sun 01:30:18 PM 54.9333 172.0000 235° Southwest 470 541 34,000  Level Anchorage Center
Sun 01:31:18 PM 54.8500 171.8000 234° Southwest 460 529 34,000  Level Anchorage Center
Sun 01:32:18 PM 54.7667 171.6000 234° Southwest 470 541 34,000  Level Anchorage Center
Sun 01:33:18 PM 54.7000 171.4500 232° Southwest 460 529 34,000  Level Anchorage Center
Sun 01:34:19 PM 54.6167 171.2500 234° Southwest 460 529 34,000  Level Anchorage Center
Sun 01:35:19 PM 54.5500 171.1000 233° Southwest 460 529 34,000  Level Anchorage Center
Sun 01:36:19 PM 54.4833 170.9000 240° Southwest 460 529 34,000  Level Anchorage Center
Sun 01:37:19 PM 54.4167 170.7500 233° Southwest 460 529 34,000  Level Anchorage Center
Sun 01:38:19 PM 54.3333 170.5667 232° Southwest 460 529 34,000  Level Anchorage Center
Sun 01:39:19 PM 54.2667 170.4167 233° Southwest 460 529 34,000  Level Anchorage Center
Sun 01:40:19 PM 54.1833 170.2167 235° Southwest 460 529 34,000  Level Anchorage Center
Sun 01:41:19 PM 54.1000 170.0333 232° Southwest 450 518 34,000  Level Anchorage Center
Sun 01:42:19 PM 54.0333 169.8833 233° Southwest 450 518 34,000  Level Anchorage Center
Sun 01:43:19 PM 53.9500 169.7000 232° Southwest 450 518 34,000  Level Anchorage Center
Sun 01:44:19 PM 53.8833 169.5500 233° Southwest 450 518 34,000  Level Anchorage Center
Sun 01:45:19 PM 53.8000 169.3833 230° Southwest 460 529 34,000  Level Anchorage Center
Sun 01:46:19 PM 53.7333 169.2333 233° Southwest 440 506 34,000  Level Anchorage Center
Sun 01:51:51 PM 53.4167 168.2333 240° Southwest 450 518 34,000  Level Anchorage Center
Sun 01:55:20 PM 53.1833 167.6167 239° Southwest 452 520 34,000  Level Anchorage Center
Sun 02:04:50 PM 52.5500 165.9000 238° Southwest 450 518 34,000  Level Anchorage Center
Sun 02:14:23 PM 51.9000 164.2500 237° Southwest 455 524 34,000  Level Anchorage Center
Sun 02:18:05 PM 51.6500 163.6500 236° Southwest 449 517 34,000  Level Anchorage Center
Sun 02:24:11 PM 51.2333 162.6500 235° Southwest 451 519 34,000  Level Anchorage Center
Sun 02:33:40 PM 50.5333 161.1000 235° Southwest 450 518 34,000  Level Anchorage Center
Sun 02:38:08 PM 50.2000 160.3833 234° Southwest 449 517 34,000  Level Anchorage Center
Sun 02:39:00 PM 50.1283 160.2175 234° Southwest 450 518 34,000  Level FlightAware Transoceanic
Sun 02:40:00 PM 50.0601 160.0719 234° Southwest 450 518 34,000  Level FlightAware Transoceanic
Sun 02:41:00 PM 49.9918 159.9267 234° Southwest 450 518 34,000  Level FlightAware Transoceanic
Sun 02:42:00 PM 49.9233 159.7819 234° Southwest 450 518 34,000  Level FlightAware Transoceanic
Sun 02:43:00 PM 49.8546 159.6375 233° Southwest 450 518 34,000  Level FlightAware Transoceanic
Sun 02:44:00 PM 49.7863 159.4964 234° Southwest 449 517 34,000  Level FlightAware Transoceanic
Sun 02:45:00 PM 49.7167 159.3500 233° Southwest 449 517 34,000  Level FlightAware Transoceanic
Sun 02:46:00 PM 49.6445 159.2026 233° Southwest 449 517 34,000  Level FlightAware Transoceanic
Sun 02:47:00 PM 49.5721 159.0556 233° Southwest 449 517 34,000  Level FlightAware Transoceanic
Sun 02:48:00 PM 49.4995 158.9090 233° Southwest 449 517 34,000  Level FlightAware Transoceanic
Sun 02:49:00 PM 49.4267 158.7629 232° Southwest 449 517 34,000  Level FlightAware Transoceanic
Sun 02:50:00 PM 49.3538 158.6172 232° Southwest 449 517 34,000  Level FlightAware Transoceanic
Sun 02:51:00 PM 49.2806 158.4719 232° Southwest 449 517 34,000  Level FlightAware Transoceanic
Sun 02:52:00 PM 49.2073 158.3271 232° Southwest 449 517 34,000  Level FlightAware Transoceanic
Sun 02:53:00 PM 49.1338 158.1827 232° Southwest 449 517 34,000  Level FlightAware Transoceanic
Sun 02:54:00 PM 49.0601 158.0387 232° Southwest 449 517 34,000  Level FlightAware Transoceanic
Sun 02:55:00 PM 48.9863 157.8952 232° Southwest 449 517 34,000  Level FlightAware Transoceanic
Sun 02:56:00 PM 48.9123 157.7520 232° Southwest 449 517 34,000  Level FlightAware Transoceanic
Sun 02:57:00 PM 48.8381 157.6093 232° Southwest 449 517 34,000  Level FlightAware Transoceanic
Sun 02:58:00 PM 48.7637 157.4671 232° Southwest 449 517 34,000  Level FlightAware Transoceanic
Sun 02:59:00 PM 48.6891 157.3252 231° Southwest 449 517 34,000  Level FlightAware Transoceanic
Sun 03:00:00 PM 48.6144 157.1838 231° Southwest 449 517 34,000  Level FlightAware Transoceanic
Sun 03:01:00 PM 48.5395 157.0428 231° Southwest 449 517 34,000  Level FlightAware Transoceanic
Sun 03:02:00 PM 48.4644 156.9022 231° Southwest 449 517 34,000  Level FlightAware Transoceanic
Sun 03:03:00 PM 48.3891 156.7620 231° Southwest 449 517 34,000  Level FlightAware Transoceanic
Sun 03:04:00 PM 48.3137 156.6222 231° Southwest 449 517 34,000  Level FlightAware Transoceanic
Sun 03:05:00 PM 48.2381 156.4829 231° Southwest 449 517 34,000  Level FlightAware Transoceanic
Sun 03:06:00 PM 48.1624 156.3439 231° Southwest 449 517 34,000  Level FlightAware Transoceanic
Sun 03:07:00 PM 48.0865 156.2054 231° Southwest 449 517 34,000  Level FlightAware Transoceanic
Sun 03:08:00 PM 48.0104 156.0673 230° Southwest 449 517 34,000  Level FlightAware Transoceanic
Sun 03:09:00 PM 47.9341 155.9296 230° Southwest 449 517 34,000  Level FlightAware Transoceanic
Sun 03:10:00 PM 47.8577 155.7923 230° Southwest 449 517 34,000  Level FlightAware Transoceanic
Sun 03:11:00 PM 47.7811 155.6553 230° Southwest 449 517 34,000  Level FlightAware Transoceanic
Sun 03:12:00 PM 47.7044 155.5188 230° Southwest 449 517 34,000  Level FlightAware Transoceanic
Sun 03:13:00 PM 47.6275 155.3828 230° Southwest 449 517 34,000  Level FlightAware Transoceanic
Sun 03:14:00 PM 47.5504 155.2471 230° Southwest 449 517 34,000  Level FlightAware Transoceanic
Sun 03:15:00 PM 47.4732 155.1117 230° Southwest 449 517 34,000  Level FlightAware Transoceanic
Sun 03:16:00 PM 47.3958 154.9768 230° Southwest 449 517 34,000  Level FlightAware Transoceanic
Sun 03:17:00 PM 47.3183 154.8423 230° Southwest 449 517 34,000  Level FlightAware Transoceanic
Sun 03:18:00 PM 47.2406 154.7082 229° Southwest 449 517 34,000  Level FlightAware Transoceanic
Sun 03:19:00 PM 47.1627 154.5745 229° Southwest 449 517 34,000  Level FlightAware Transoceanic
Sun 03:20:00 PM 47.0847 154.4412 229° Southwest 449 517 34,000  Level FlightAware Transoceanic
Sun 03:21:00 PM 47.0066 154.3082 229° Southwest 449 517 34,000  Level FlightAware Transoceanic
Sun 03:22:00 PM 46.9283 154.1757 229° Southwest 449 517 34,000  Level FlightAware Transoceanic
Sun 03:23:00 PM 46.8498 154.0435 229° Southwest 449 517 34,000  Level FlightAware Transoceanic
Sun 03:24:00 PM 46.7712 153.9117 229° Southwest 449 517 34,000  Level FlightAware Transoceanic
Sun 03:25:00 PM 46.6924 153.7803 229° Southwest 449 517 34,000  Level FlightAware Transoceanic
Sun 03:26:00 PM 46.6135 153.6494 229° Southwest 449 517 34,000  Level FlightAware Transoceanic
Sun 03:27:00 PM 46.5344 153.5187 229° Southwest 449 517 34,000  Level FlightAware Transoceanic
Sun 03:28:00 PM 46.4552 153.3885 228° Southwest 449 517 34,000  Level FlightAware Transoceanic
Sun 03:29:00 PM 46.3758 153.2586 228° Southwest 449 517 34,000  Level FlightAware Transoceanic
Sun 03:30:00 PM 46.2963 153.1291 228° Southwest 449 517 34,000 -227 Level FlightAware Transoceanic
Sun 03:31:00 PM 46.2176 153.0016 228° Southwest  Level FlightAware Approximate
Sun 03:32:00 PM 46.1386 152.8746 228° Southwest  Level FlightAware Approximate
Sun 03:33:00 PM 46.1393 152.8765 228° Southwest  Level FlightAware Approximate
Sun 03:34:00 PM 46.0598 152.7503 228° Southwest  Level FlightAware Approximate
Sun 03:35:00 PM 45.9802 152.6245 228° Southwest  Level FlightAware Approximate
Sun 03:36:00 PM 45.9005 152.4990 228° Southwest  Level FlightAware Approximate
Sun 03:37:00 PM 45.8206 152.3739 228° Southwest  Level FlightAware Approximate
Sun 03:38:00 PM 45.7406 152.2492 227° Southwest  Level FlightAware Approximate
Sun 03:39:00 PM 45.6605 152.1248 227° Southwest  Level FlightAware Approximate
Sun 03:40:00 PM 45.5802 152.0007 227° Southwest  Level FlightAware Approximate
Sun 03:41:00 PM 45.4998 151.8770 227° Southwest  Level FlightAware Approximate
Sun 03:42:00 PM 45.4193 151.7537 227° Southwest  Level FlightAware Approximate
Sun 03:43:00 PM 45.3386 151.6307 227° Southwest  Level FlightAware Approximate
Sun 03:44:00 PM 45.2578 151.5081 227° Southwest  Level FlightAware Approximate
Sun 03:45:00 PM 45.1768 151.3858 227° Southwest  Level FlightAware Approximate
Sun 03:46:00 PM 45.0957 151.2639 227° Southwest  Level FlightAware Approximate
Sun 03:47:00 PM 45.0145 151.1423 227° Southwest  Level FlightAware Approximate
Sun 03:48:00 PM 44.9332 151.0211 227° Southwest  Level FlightAware Approximate
Sun 03:49:00 PM 44.8518 150.9002 226° Southwest  Level FlightAware Approximate
Sun 03:50:00 PM 44.7702 150.7796 226° Southwest  Level FlightAware Approximate
Sun 03:51:00 PM 44.6885 150.6594 226° Southwest  Level FlightAware Approximate
Sun 03:52:00 PM 44.6066 150.5395 226° Southwest  Level FlightAware Approximate
Sun 03:53:00 PM 44.5247 150.4200 226° Southwest  Level FlightAware Approximate
Sun 03:54:00 PM 44.4426 150.3008 226° Southwest  Level FlightAware Approximate
Sun 03:55:00 PM 44.3604 150.1819 226° Southwest  Level FlightAware Approximate
Sun 03:56:00 PM 44.2781 150.0633 226° Southwest  Level FlightAware Approximate
Sun 03:57:00 PM 44.1956 149.9451 226° Southwest  Level FlightAware Approximate
Sun 03:58:00 PM 44.1130 149.8273 226° Southwest  Level FlightAware Approximate
Sun 03:59:00 PM 44.0303 149.7097 226° Southwest  Level FlightAware Approximate
Sun 04:00:00 PM 43.9475 149.5925 226° Southwest  Level FlightAware Approximate
Sun 04:01:00 PM 43.8646 149.4756 225° Southwest  Level FlightAware Approximate
Sun 04:02:00 PM 43.7815 149.3590 225° Southwest  Level FlightAware Approximate
Sun 04:03:00 PM 43.6984 149.2428 225° Southwest  Level FlightAware Approximate
Sun 04:04:00 PM 43.6151 149.1269 225° Southwest  Level FlightAware Approximate
Sun 04:05:00 PM 43.5317 149.0113 225° Southwest  Level FlightAware Approximate
Sun 04:06:00 PM 43.4481 148.8960 225° Southwest  Level FlightAware Approximate
Sun 04:07:00 PM 43.3645 148.7810 225° Southwest  Level FlightAware Approximate
Sun 04:08:00 PM 43.2808 148.6664 225° Southwest  Level FlightAware Approximate
Sun 04:09:00 PM 43.1969 148.5520 225° Southwest  Level FlightAware Approximate
Sun 04:10:00 PM 43.1129 148.4380 225° Southwest  Level FlightAware Approximate
Sun 04:11:00 PM 43.0288 148.3243 225° Southwest  Level FlightAware Approximate
Sun 04:12:00 PM 42.9446 148.2109 225° Southwest  Level FlightAware Approximate
Sun 04:13:00 PM 42.8603 148.0979 225° Southwest  Level FlightAware Approximate
Sun 04:14:00 PM 42.7758 147.9851 224° Southwest  Level FlightAware Approximate
Sun 04:15:00 PM 42.6913 147.8726 224° Southwest  Level FlightAware Approximate
Sun 04:16:00 PM 42.6067 147.7605 224° Southwest  Level FlightAware Approximate
Sun 04:17:00 PM 42.5219 147.6486 224° Southwest  Level FlightAware Approximate
Sun 04:18:00 PM 42.4370 147.5370 224° Southwest  Level FlightAware Approximate
Sun 04:19:00 PM 42.3524 147.4253 225° Southwest  Level FlightAware Approximate
Sun 04:20:00 PM 42.2681 147.3132 225° Southwest  Level FlightAware Approximate
Sun 04:21:00 PM 42.1838 147.2014 225° Southwest  Level FlightAware Approximate
Sun 04:22:00 PM 42.0994 147.0898 224° Southwest  Level FlightAware Approximate
Sun 04:23:00 PM 42.0148 146.9786 224° Southwest  Level FlightAware Approximate
Sun 04:24:00 PM 41.9301 146.8676 224° Southwest  Level FlightAware Approximate
Sun 04:25:00 PM 41.8443 146.7585 223° Southwest  Level FlightAware Approximate
Sun 04:26:00 PM 41.7581 146.6501 223° Southwest  Level FlightAware Approximate
Sun 04:27:00 PM 41.6718 146.5418 223° Southwest  Level FlightAware Approximate
Sun 04:28:00 PM 41.5854 146.4339 223° Southwest  Level FlightAware Approximate
Sun 04:29:00 PM 41.4989 146.3263 223° Southwest  Level FlightAware Approximate
Sun 04:30:00 PM 41.4123 146.2189 223° Southwest  Level FlightAware Approximate
Sun 04:31:00 PM 41.3256 146.1119 223° Southwest  Level FlightAware Approximate
Sun 04:32:00 PM 41.2388 146.0051 223° Southwest  Level FlightAware Approximate
Sun 04:33:00 PM 41.1521 145.8983 224° Southwest  Level FlightAware Approximate
Sun 04:34:00 PM 41.0665 145.7902 224° Southwest  Level FlightAware Approximate
Sun 04:35:00 PM 40.9807 145.6824 224° Southwest  Level FlightAware Approximate
Sun 04:36:00 PM 40.8949 145.5749 223° Southwest  Level FlightAware Approximate
Sun 04:37:00 PM 40.8089 145.4676 223° Southwest  Level FlightAware Approximate
Sun 04:38:00 PM 40.7228 145.3607 223° Southwest  Level FlightAware Approximate
Sun 04:39:00 PM 40.6367 145.2540 223° Southwest  Level FlightAware Approximate
Sun 04:40:00 PM 40.5504 145.1476 223° Southwest  Level FlightAware Approximate
Sun 04:41:00 PM 40.4641 145.0414 223° Southwest  Level FlightAware Approximate
Sun 04:42:00 PM 40.3773 144.9359 223° Southwest  Level FlightAware Approximate
Sun 04:43:00 PM 40.2902 144.8312 223° Southwest  Level FlightAware Approximate
Sun 04:44:00 PM 40.2029 144.7267 222° Southwest  Level FlightAware Approximate
Sun 04:45:00 PM 40.1156 144.6225 222° Southwest  Level FlightAware Approximate
Sun 04:46:00 PM 40.0281 144.5186 222° Southwest  Level FlightAware Approximate
Sun 04:47:00 PM 39.9406 144.4149 222° Southwest  Level FlightAware Approximate
Sun 04:48:00 PM 39.8530 144.3115 222° Southwest  Level FlightAware Approximate
Sun 04:49:00 PM 39.7653 144.2084 222° Southwest  Level FlightAware Approximate
Sun 04:50:00 PM 39.6774 144.1055 222° Southwest  Level FlightAware Approximate
Sun 04:51:00 PM 39.5896 144.0029 222° Southwest  Level FlightAware Approximate
Sun 04:52:00 PM 39.5016 143.9005 222° Southwest  Level FlightAware Approximate
Sun 04:53:00 PM 39.4135 143.7984 222° Southwest  Level FlightAware Approximate
Sun 04:54:00 PM 39.3253 143.6966 222° Southwest  Level FlightAware Approximate
Sun 04:55:00 PM 39.2371 143.5950 222° Southwest  Level FlightAware Approximate
Sun 04:56:00 PM 39.1484 143.4941 221° Southwest  Level FlightAware Approximate
Sun 04:57:00 PM 39.0592 143.3942 221° Southwest  Level FlightAware Approximate
Sun 04:58:00 PM 38.9699 143.2945 221° Southwest  Level FlightAware Approximate
Sun 04:59:00 PM 38.8754 143.2072 197° South  Level FlightAware Approximate
Sun 05:00:00 PM 38.7621 143.1640 197° South  Level FlightAware Approximate
Sun 05:01:00 PM 38.6488 143.1208 197° South  Level FlightAware Approximate
Sun 05:02:00 PM 38.5355 143.0778 197° South  Level FlightAware Approximate
Sun 05:03:00 PM 38.4221 143.0349 197° South  Level FlightAware Approximate
Sun 05:04:00 PM 38.3088 142.9922 196° South  Level FlightAware Approximate
Sun 05:05:00 PM 38.1954 142.9496 196° South  Level FlightAware Approximate
Sun 05:06:00 PM 38.0821 142.9071 196° South  Level FlightAware Approximate
Sun 05:07:00 PM 37.9687 142.8647 196° South  Level FlightAware Approximate
Sun 05:08:00 PM 37.8553 142.8225 196° South  Level FlightAware Approximate
Sun 05:09:00 PM 37.7418 142.7804 196° South  Level FlightAware Approximate
Sun 05:10:00 PM 37.6284 142.7384 196° South  Level FlightAware Approximate
Sun 05:11:00 PM 37.5149 142.6966 196° South  Level FlightAware Approximate
Sun 05:12:00 PM 37.4015 142.6549 196° South  Level FlightAware Approximate
Sun 05:13:00 PM 37.2880 142.6133 196° South  Level FlightAware Approximate
Sun 05:14:00 PM 37.1745 142.5719 196° South  Level FlightAware Approximate
Sun 05:15:00 PM 37.0610 142.5306 196° South  Level FlightAware Approximate
Sun 05:16:00 PM 36.9474 142.4894 196° South  Level FlightAware Approximate
Sun 05:17:00 PM 36.8339 142.4483 196° South  Level FlightAware Approximate
Sun 05:18:00 PM 36.7204 142.4073 196° South  Level FlightAware Approximate
Sun 05:19:00 PM 36.6063 142.3687 195° South  Level FlightAware Approximate
Sun 05:20:00 PM 36.4923 142.3299 200° South  Level FlightAware Approximate
Sun 05:21:00 PM 36.3810 142.2804 200° South  Level FlightAware Approximate
Sun 05:22:00 PM 36.2668 142.2440 196° South  Level FlightAware Approximate
Sun 05:23:00 PM 36.1534 142.2027 196° South  Level FlightAware Approximate
Sun 05:24:00 PM 36.0386 142.1680 191° South  Level FlightAware Approximate
Sun 05:25:00 PM 36.0070 142.0313 251° West  Level FlightAware Approximate
Sun 05:26:00 PM 35.9693 141.8929 251° West  Level FlightAware Approximate
Sun 05:27:00 PM 35.9403 141.7513 256° West  Level FlightAware Approximate
Sun 05:28:00 PM 35.9036 141.6127 251° West  Level FlightAware Approximate
Sun 05:29:00 PM 35.8913 141.4680 265° West  Level FlightAware Approximate
Sun 05:30:00 PM 35.8789 141.3231 258° West  Level FlightAware Approximate
Sun 05:31:00 PM 35.8550 141.1802 258° West  Level FlightAware Approximate
Sun 05:32:00 PM 35.8359 141.0363 261° West  Level FlightAware Approximate
Sun 05:33:00 PM 35.8178 140.8923 261° West  Level FlightAware Approximate
Sun 05:34:00 PM 35.8080 140.7474 261° West  Level FlightAware Approximate
Sun 05:35:00 PM 35.7833 140.6083 270° West  Level FlightAware Approximate
Sun 05:36:00 PM 35.7667 140.4647 270° West  Level FlightAware Approximate
Sun 05:37:00 PM 35.7500 140.3833 253° West  Level FlightAware Approximate
Sun 05:38:00 PM 35.7647 140.3864 253° West  Level Estimated
Sun 05:39:00 PM 35.7647 140.3864 253° West  Level Estimated
Sun 05:40:00 PM 35.7647 140.3864 253° West  Level Estimated
Sun 05:41:00 PM 35.7647 140.3864 253° West  Level Estimated
Sun 05:42:00 PM 35.7647 140.3864 253° West  Level Estimated
Sun 05:43:00 PM 35.7647 140.3864 253° West  Level Estimated
Sun 05:44:00 PM 35.7647 140.3864 253° West  Level Estimated
Sun 05:45:00 PM 35.7647 140.3864 253° West  Level Estimated
Sun 05:45:43 PM 35.6210 140.4790 253° West 140 161 2,900  Level FlightAware ADS-B
Sun 05:46:00 PM 35.7647 140.3864 253° West  Level Estimated
Sun 05:46:16 PM 35.6400 140.4650 329° Northwest 140 161 2,400  Level FlightAware ADS-B
Sun 05:48:00 PM 35.7500 140.3833 253° West  Level FlightAware Approximate
Sun 05:49:00 PM 35.7647 140.3864 253° West  Level Estimated
Sun 05:50:00 PM 35.7647 140.3864 253° West  Level Estimated
Sun 05:51:00 PM 35.7647 140.3864 253° West  Level Estimated
Sun 05:52:00 PM 35.7647 140.3864 253° West  Level Estimated
Sun 05:53:00 PM 35.7647 140.3864 253° West  Level Estimated
Sun 05:54:00 PM 35.7647 140.3864 253° West  Level Estimated
Sun 05:55:00 PM 35.7647 140.3864 253° West  Level Estimated
Sun 05:56:00 PM 35.7647 140.3864 253° West  Level Estimated
Sun 05:57:00 PM 35.7647 140.3864 253° West  Level Estimated
Sun 05:58:00 PM 35.7647 140.3864 253° West  Level Estimated
Sun 05:59:00 PM 35.7647 140.3864 253° West  Level Estimated
Sun 06:00:00 PM 35.7647 140.3864 253° West  Level Estimated
Sun 06:01:00 PM 35.7647 140.3864 253° West  Level Estimated
Sun 06:02:00 PM 35.7647 140.3864 253° West  Level Estimated
Sun 06:03:00 PM 35.7647 140.3864 253° West  Level Estimated
Sun 06:04:00 PM 35.7647 140.3864 253° West  Level Estimated
Sun 06:05:00 PM 35.7647 140.3864 253° West  Level Estimated

Login

Don't have an account? Register now (free) for customized features, flight alerts, and more!